Time;durP1;ratioP1;P1;durP2;ratioP2;P2;SDS_P1;SDS_P2;PMS_P1;PMS_P2;Temp;Humidity;BMP_temperature;BMP_pressure;BME280_temperature;BME280_humidity;BME280_pressure;Samples;Min_cycle;Max_cycle;Signal;HPM_P1;HPM_P2
2023/10/19 00:00:44;;;;;;;3.27;2.47;;;15.30;1.00;;;;;;4974501;28;20881;-82
2023/10/19 00:03:12;;;;;;;5.50;2.90;;;15.20;1.00;;;;;;4979888;28;20419;-83
2023/10/19 00:05:38;;;;;;;3.55;2.40;;;15.20;1.00;;;;;;4959641;28;20416;-81
2023/10/19 00:08:17;;;;;;;2.25;2.05;;;15.10;1.00;;;;;;4974972;28;20900;-82
2023/10/19 00:10:45;;;;;;;3.15;2.58;;;15.00;1.00;;;;;;4956660;28;20750;-83
2023/10/19 00:13:16;;;;;;;3.20;2.90;;;14.90;1.00;;;;;;4974432;28;20891;-82
2023/10/19 00:15:48;;;;;;;4.80;3.10;;;15.30;1.00;;;;;;4957090;28;20436;-83
2023/10/19 00:20:53;;;;;;;6.22;3.78;;;15.70;1.00;;;;;;4975144;28;20461;-80
2023/10/19 00:23:29;;;;;;;4.90;4.25;;;15.50;1.00;;;;;;4973499;28;20458;-82
2023/10/19 00:26:08;;;;;;;5.40;3.90;;;15.50;1.00;;;;;;4981681;28;20967;-81
2023/10/19 00:28:35;;;;;;;5.63;3.80;;;15.40;1.00;;;;;;4969769;28;20920;-82
2023/10/19 00:31:04;;;;;;;4.20;3.80;;;15.20;1.00;;;;;;4978768;28;20446;-82
2023/10/19 00:33:32;;;;;;;6.20;4.13;;;15.00;1.00;;;;;;4956095;28;20407;-83
2023/10/19 00:36:15;;;;;;;6.20;4.07;;;14.90;1.00;;;;;;4973397;28;20388;-83
2023/10/19 00:38:52;;;;;;;4.63;4.23;;;14.80;1.00;;;;;;4973639;28;20473;-82
2023/10/19 00:41:21;;;;;;;5.95;4.20;;;14.60;1.00;;;;;;4973375;28;20800;-82
2023/10/19 00:43:57;;;;;;;6.30;5.70;;;14.30;1.00;;;;;;4980831;28;20492;-78
2023/10/19 00:46:26;;;;;;;6.53;5.85;;;14.30;1.00;;;;;;4983519;28;20415;-80
2023/10/19 00:48:57;;;;;;;5.80;5.30;;;14.10;1.00;;;;;;4961002;28;20454;-83
2023/10/19 00:54:32;;;;;;;6.97;6.00;;;14.00;1.00;;;;;;4974055;28;20488;-81
2023/10/19 00:57:04;;;;;;;6.03;5.35;;;14.00;1.00;;;;;;4962978;28;20420;-83
2023/10/19 00:59:30;;;;;;;5.70;4.95;;;14.00;1.00;;;;;;4956808;28;20400;-83
2023/10/19 01:04:42;;;;;;;5.97;5.47;;;14.10;1.00;;;;;;4980825;28;20441;-81
2023/10/19 01:07:15;;;;;;;7.22;6.50;;;14.20;1.00;;;;;;4969576;28;20752;-83
2023/10/19 01:09:44;;;;;;;7.97;7.18;;;14.20;1.00;;;;;;4991806;28;20396;-82
2023/10/19 01:12:25;;;;;;;7.35;6.65;;;14.20;1.00;;;;;;4980157;28;20479;-82
2023/10/19 01:15:18;;;;;;;7.97;7.18;;;14.10;1.00;;;;;;4969384;28;20443;-83
2023/10/19 01:17:45;;;;;;;7.07;6.47;;;13.80;1.00;;;;;;4977822;28;20856;-82
2023/10/19 01:29:13;;;;;;;8.88;7.28;;;13.60;1.00;;;;;;4978500;28;20400;-82
2023/10/19 01:31:22;;;;;;;7.70;6.90;;;13.50;1.00;;;;;;4958873;28;20397;-83
2023/10/19 01:33:48;;;;;;;7.55;6.85;;;13.50;1.00;;;;;;4977388;28;20411;-81
2023/10/19 01:36:14;;;;;;;8.10;7.40;;;13.50;1.00;;;;;;4976609;28;20853;-82
2023/10/19 01:38:41;;;;;;;6.95;6.35;;;13.60;1.00;;;;;;4977188;28;20395;-82
2023/10/19 01:41:16;;;;;;;8.07;6.50;;;13.60;1.00;;;;;;4976798;28;20392;-83
2023/10/19 01:43:43;;;;;;;8.30;6.35;;;13.70;1.00;;;;;;4959664;28;20555;-83
2023/10/19 01:46:13;;;;;;;6.95;6.35;;;13.60;1.00;;;;;;4959590;28;20507;-83
2023/10/19 01:48:43;;;;;;;9.10;6.00;;;13.60;3.20;;;;;;4977932;28;20432;-82
2023/10/19 01:51:10;;;;;;;6.30;5.60;;;13.60;1.20;;;;;;4959798;28;20401;-82
2023/10/19 01:53:39;;;;;;;7.43;6.10;;;13.70;1.00;;;;;;4976464;28;20420;-81
2023/10/19 01:56:09;;;;;;;7.30;6.25;;;13.60;2.30;;;;;;4997394;23;20451;-84
2023/10/19 01:58:36;;;;;;;7.03;5.65;;;13.90;6.40;;;;;;4978379;28;20398;-84
2023/10/19 02:01:14;;;;;;;6.13;5.50;;;14.10;11.20;;;;;;5017035;28;20442;-84
2023/10/19 02:03:43;;;;;;;5.80;5.20;;;13.60;16.80;;;;;;4971018;28;20403;-84
2023/10/19 02:06:17;;;;;;;5.55;5.05;;;13.60;21.40;;;;;;4964411;28;20438;-84
2023/10/19 02:08:51;;;;;;;5.78;5.28;;;13.60;20.60;;;;;;4974737;28;20384;-84
2023/10/19 02:11:20;;;;;;;5.13;4.63;;;13.80;16.00;;;;;;4975225;28;20483;-84
2023/10/19 02:13:52;;;;;;;5.80;5.20;;;13.70;11.90;;;;;;4957373;28;20827;-84
2023/10/19 02:16:22;;;;;;;6.38;4.68;;;13.60;16.60;;;;;;4962690;28;20396;-84
2023/10/19 02:18:51;;;;;;;4.90;4.40;;;13.70;12.70;;;;;;4988152;28;20385;-84
2023/10/19 02:21:21;;;;;;;6.20;4.30;;;13.80;15.50;;;;;;4974722;28;20486;-84
2023/10/19 02:23:50;;;;;;;5.85;4.65;;;13.80;25.50;;;;;;4957318;28;20443;-85
2023/10/19 02:26:25;;;;;;;5.60;4.20;;;13.80;24.90;;;;;;4957275;28;20424;-84
2023/10/19 02:28:51;;;;;;;5.50;4.50;;;13.80;19.30;;;;;;4957958;28;20383;-84
2023/10/19 02:31:21;;;;;;;6.65;4.32;;;13.70;29.20;;;;;;4990187;28;20410;-84
2023/10/19 02:34:07;;;;;;;4.25;3.90;;;13.70;29.30;;;;;;4976619;28;20398;-84
2023/10/19 02:36:33;;;;;;;6.28;4.05;;;13.80;36.20;;;;;;4970582;28;20915;-84
2023/10/19 02:39:07;;;;;;;4.00;3.60;;;13.80;43.60;;;;;;4975690;28;20438;-83
2023/10/19 02:41:35;;;;;;;5.30;4.15;;;13.00;35.60;;;;;;4957756;28;20482;-84
2023/10/19 02:46:31;;;;;;;5.70;4.03;;;13.80;48.30;;;;;;4993789;28;20425;-83
2023/10/19 02:49:03;;;;;;;4.00;3.60;;;13.70;41.60;;;;;;4975975;28;20402;-84
2023/10/19 02:51:30;;;;;;;4.72;3.80;;;13.70;45.00;;;;;;4976841;28;20390;-83
2023/10/19 02:53:57;;;;;;;4.85;3.47;;;13.70;49.40;;;;;;4967077;28;20392;-84
2023/10/19 02:56:26;;;;;;;4.50;3.60;;;13.50;36.40;;;;;;4974470;28;20408;-84
2023/10/19 02:58:52;;;;;;;4.17;3.60;;;13.10;46.40;;;;;;4974146;28;20388;-84
2023/10/19 03:01:28;;;;;;;4.37;3.70;;;13.40;48.10;;;;;;4956662;28;20416;-84
2023/10/19 03:03:55;;;;;;;4.00;3.60;;;13.30;46.80;;;;;;4973687;28;20392;-84
2023/10/19 03:06:23;;;;;;;4.90;3.60;;;13.30;54.40;;;;;;4992604;28;20406;-84
2023/10/19 03:08:57;;;;;;;4.15;3.40;;;13.30;52.80;;;;;;4984747;28;20410;-84
2023/10/19 03:11:29;;;;;;;4.72;3.70;;;13.30;61.50;;;;;;4969756;28;20427;-84
2023/10/19 03:13:56;;;;;;;4.47;3.67;;;13.30;54.20;;;;;;4956423;28;20547;-84
2023/10/19 03:16:23;;;;;;;3.63;3.33;;;13.40;54.30;;;;;;4956145;28;20919;-83
2023/10/19 03:18:49;;;;;;;5.60;3.78;;;13.30;54.40;;;;;;4956273;28;20432;-84
2023/10/19 03:21:16;;;;;;;5.78;3.70;;;13.40;56.20;;;;;;4958918;28;20494;-84
2023/10/19 03:23:42;;;;;;;4.03;3.53;;;13.40;58.20;;;;;;4992724;28;20397;-84
2023/10/19 03:26:18;;;;;;;5.37;3.27;;;13.40;55.10;;;;;;4980423;28;20460;-84
2023/10/19 03:28:45;;;;;;;4.03;3.33;;;13.30;54.30;;;;;;4987734;28;20403;-84
2023/10/19 03:31:17;;;;;;;5.32;3.70;;;13.40;57.20;;;;;;4988229;28;20773;-84
2023/10/19 03:33:50;;;;;;;4.15;3.25;;;13.40;51.80;;;;;;5012189;28;20389;-84
2023/10/19 03:36:16;;;;;;;4.28;3.10;;;13.30;55.70;;;;;;4999159;28;20833;-84
2023/10/19 03:38:43;;;;;;;3.63;3.22;;;13.50;61.00;;;;;;4984594;28;20437;-83
2023/10/19 03:41:09;;;;;;;3.30;2.80;;;13.50;56.50;;;;;;4981381;28;20394;-84
2023/10/19 03:43:40;;;;;;;4.07;3.67;;;13.60;58.00;;;;;;4986703;28;20830;-84
2023/10/19 03:46:11;;;;;;;4.18;3.40;;;13.70;58.90;;;;;;4972666;28;20414;-84
2023/10/19 03:48:38;;;;;;;4.00;3.20;;;13.70;43.70;;;;;;4959836;28;20407;-84
2023/10/19 03:51:04;;;;;;;3.20;2.90;;;13.70;46.20;;;;;;4992001;28;20394;-84
2023/10/19 03:53:31;;;;;;;3.45;2.75;;;13.70;46.90;;;;;;4955293;28;20401;-84
2023/10/19 03:55:57;;;;;;;3.38;2.75;;;13.80;49.40;;;;;;4972383;28;20404;-84
2023/10/19 03:58:23;;;;;;;3.20;2.90;;;13.20;32.10;;;;;;4982379;28;20460;-83
2023/10/19 04:00:49;;;;;;;3.50;3.20;;;13.90;42.10;;;;;;4974916;28;20410;-84
2023/10/19 04:03:17;;;;;;;2.65;2.45;;;13.80;38.80;;;;;;4974735;28;20398;-84
2023/10/19 04:05:46;;;;;;;3.85;3.00;;;13.90;41.90;;;;;;4999580;28;20414;-84
2023/10/19 04:08:14;;;;;;;2.83;2.40;;;13.90;34.10;;;;;;5011099;28;20398;-82
2023/10/19 04:10:44;;;;;;;4.13;2.67;;;13.90;34.60;;;;;;4999902;28;20406;-83
2023/10/19 04:13:10;;;;;;;2.95;2.50;;;13.80;36.90;;;;;;4989275;28;20403;-84
2023/10/19 04:15:37;;;;;;;3.90;2.53;;;13.90;51.30;;;;;;4994043;28;20398;-84
2023/10/19 04:18:10;;;;;;;2.90;2.57;;;13.90;45.70;;;;;;4985728;28;20482;-84
2023/10/19 04:20:54;;;;;;;3.00;2.80;;;13.90;41.70;;;;;;4963918;28;20882;-83
2023/10/19 04:23:26;;;;;;;4.10;2.53;;;14.10;51.30;;;;;;4983746;28;20987;-84
2023/10/19 04:26:02;;;;;;;3.10;2.40;;;13.90;47.10;;;;;;4978395;28;20536;-84
2023/10/19 04:28:37;;;;;;;2.90;2.60;;;14.00;44.40;;;;;;4963018;28;20404;-84
2023/10/19 04:31:03;;;;;;;4.88;2.50;;;13.90;36.60;;;;;;4972801;28;20763;-84
2023/10/19 04:33:30;;;;;;;5.10;2.50;;;13.90;35.80;;;;;;4961268;28;20385;-84
2023/10/19 04:35:55;;;;;;;3.35;2.00;;;14.00;28.90;;;;;;4984252;28;20785;-84
2023/10/19 04:38:23;;;;;;;2.90;2.50;;;14.00;21.00;;;;;;4979624;28;20408;-83
2023/10/19 04:40:48;;;;;;;3.75;2.10;;;13.90;18.70;;;;;;4993559;28;20380;-84
2023/10/19 04:43:14;;;;;;;3.97;2.78;;;14.20;7.50;;;;;;4970294;28;20469;-85
2023/10/19 04:45:45;;;;;;;4.50;2.50;;;14.00;3.80;;;;;;4965183;28;20412;-85
2023/10/19 04:48:11;;;;;;;2.97;2.78;;;14.00;11.40;;;;;;4975219;28;20405;-86
2023/10/19 04:50:36;;;;;;;5.10;2.85;;;14.00;9.60;;;;;;4964469;28;20399;-85
2023/10/19 04:53:02;;;;;;;3.00;2.80;;;14.10;8.80;;;;;;4988495;28;20390;-85
2023/10/19 04:55:29;;;;;;;3.27;2.90;;;14.20;1.40;;;;;;4988131;28;20785;-86
2023/10/19 04:57:56;;;;;;;3.53;2.75;;;14.10;1.30;;;;;;4976987;28;20826;-85
2023/10/19 05:00:24;;;;;;;3.95;2.83;;;14.00;1.30;;;;;;4973829;28;20401;-86
2023/10/19 05:02:51;;;;;;;5.70;3.20;;;14.10;1.50;;;;;;4960845;28;20396;-86
2023/10/19 05:05:17;;;;;;;3.10;2.80;;;14.00;1.00;;;;;;4979118;28;20423;-85
2023/10/19 05:07:43;;;;;;;2.50;2.30;;;13.50;1.00;;;;;;5007160;28;20475;-85
2023/10/19 05:10:09;;;;;;;3.60;2.73;;;14.10;1.00;;;;;;5009109;28;20396;-84
2023/10/19 05:12:34;;;;;;;3.67;2.70;;;14.00;1.00;;;;;;5012112;28;20414;-84
2023/10/19 05:15:00;;;;;;;3.15;2.78;;;14.00;2.10;;;;;;4960863;28;20408;-85
2023/10/19 05:17:27;;;;;;;3.90;2.72;;;14.00;1.00;;;;;;4977546;28;20467;-85
2023/10/19 05:19:52;;;;;;;3.40;3.10;;;13.90;2.60;;;;;;4973443;28;20767;-85
2023/10/19 05:22:18;;;;;;;4.50;3.30;;;13.90;7.60;;;;;;5004021;28;20461;-85
2023/10/19 05:24:44;;;;;;;3.37;3.07;;;13.60;12.20;;;;;;5008566;28;20400;-85
2023/10/19 05:27:09;;;;;;;4.00;3.20;;;13.90;4.40;;;;;;4997225;28;20408;-85
2023/10/19 05:29:36;;;;;;;5.43;3.20;;;14.00;5.90;;;;;;4973921;28;20465;-85
2023/10/19 05:32:03;;;;;;;5.72;3.38;;;13.90;9.40;;;;;;4968444;28;20476;-87
2023/10/19 05:34:34;;;;;;;4.50;3.05;;;13.90;7.70;;;;;;4959904;28;20392;-87
2023/10/19 05:37:02;;;;;;;3.30;3.00;;;13.70;10.20;;;;;;4957985;28;20824;-86
2023/10/19 05:39:31;;;;;;;3.50;3.20;;;13.90;10.90;;;;;;4959833;28;20789;-85
2023/10/19 05:42:00;;;;;;;3.28;2.97;;;13.90;10.80;;;;;;4965458;28;20402;-85
2023/10/19 05:44:26;;;;;;;4.18;2.70;;;13.90;8.50;;;;;;4970360;28;21024;-86
2023/10/19 05:46:52;;;;;;;5.70;3.63;;;13.90;11.00;;;;;;4958780;28;20423;-86
2023/10/19 05:49:18;;;;;;;5.07;3.38;;;13.70;8.80;;;;;;4970638;28;20398;-86
2023/10/19 05:51:44;;;;;;;5.27;3.50;;;13.70;11.80;;;;;;4977457;28;20482;-86
2023/10/19 05:54:10;;;;;;;4.53;3.15;;;13.60;12.60;;;;;;4979931;28;20457;-85
2023/10/19 05:56:35;;;;;;;3.50;2.60;;;13.90;15.80;;;;;;4976260;28;20406;-86
2023/10/19 05:59:01;;;;;;;4.68;2.97;;;13.80;13.80;;;;;;4984628;28;20404;-86
2023/10/19 06:01:27;;;;;;;4.55;2.83;;;13.80;17.70;;;;;;4975657;28;20451;-86
2023/10/19 06:03:53;;;;;;;4.55;2.78;;;13.70;16.30;;;;;;4962103;28;20402;-86
2023/10/19 06:06:20;;;;;;;3.60;2.67;;;13.80;17.80;;;;;;4994485;28;20415;-86
2023/10/19 06:08:45;;;;;;;3.00;2.80;;;13.80;18.70;;;;;;4967649;28;20403;-87
2023/10/19 06:11:11;;;;;;;4.97;3.07;;;13.80;18.60;;;;;;4996289;28;20440;-86
2023/10/19 06:13:36;;;;;;;3.80;2.90;;;13.80;18.20;;;;;;4976229;28;20390;-86
2023/10/19 06:16:02;;;;;;;5.47;2.90;;;13.90;4.10;;;;;;4994462;28;20402;-86
2023/10/19 06:18:29;;;;;;;3.78;2.92;;;13.90;10.30;;;;;;4994017;28;20387;-87
2023/10/19 06:20:55;;;;;;;4.80;3.00;;;13.80;16.40;;;;;;4959111;28;20435;-86
2023/10/19 06:23:20;;;;;;;4.60;3.00;;;13.80;19.60;;;;;;4957364;28;20474;-86
2023/10/19 06:25:46;;;;;;;3.63;2.97;;;13.80;20.90;;;;;;4957225;28;20510;-86
2023/10/19 06:28:12;;;;;;;2.83;2.53;;;12.40;22.60;;;;;;4959352;28;20394;-85
2023/10/19 06:30:38;;;;;;;2.80;2.60;;;13.80;23.20;;;;;;4960098;28;20396;-85
2023/10/19 06:33:03;;;;;;;3.40;2.50;;;14.70;23.10;;;;;;4975531;28;20760;-86
2023/10/19 06:35:33;;;;;;;3.13;2.80;;;13.80;19.70;;;;;;4966681;28;20394;-86
2023/10/19 06:38:00;;;;;;;6.03;2.53;;;13.90;19.00;;;;;;4996754;28;20414;-87
2023/10/19 06:40:26;;;;;;;4.80;2.72;;;13.80;10.00;;;;;;4995677;28;20862;-86
2023/10/19 06:42:55;;;;;;;3.30;2.63;;;13.90;14.40;;;;;;4977844;28;20401;-86
2023/10/19 06:45:21;;;;;;;4.20;2.60;;;13.90;14.40;;;;;;4962020;28;20408;-87
2023/10/19 06:47:48;;;;;;;5.17;2.40;;;13.80;9.50;;;;;;4957298;28;20418;-86
2023/10/19 06:50:18;;;;;;;2.80;2.60;;;13.90;15.20;;;;;;4975147;28;20408;-88
2023/10/19 06:52:46;;;;;;;3.22;2.50;;;14.00;11.10;;;;;;4957018;28;20400;-87
2023/10/19 06:55:16;;;;;;;3.55;2.40;;;13.90;3.50;;;;;;4956719;28;20543;-87
2023/10/19 06:57:47;;;;;;;5.93;2.50;;;13.90;1.00;;;;;;4957189;28;20396;-86
2023/10/19 07:00:14;;;;;;;3.00;2.40;;;14.00;1.00;;;;;;4974318;28;20404;-86
2023/10/19 07:02:44;;;;;;;2.78;2.50;;;14.00;1.00;;;;;;4960957;28;20476;-87
2023/10/19 07:05:17;;;;;;;3.70;2.20;;;14.00;1.00;;;;;;4998870;28;20394;-84
2023/10/19 07:07:44;;;;;;;3.10;2.80;;;14.10;1.00;;;;;;4975104;28;20875;-85
2023/10/19 07:10:12;;;;;;;2.83;2.40;;;14.10;1.00;;;;;;4993471;28;20763;-86
2023/10/19 07:12:39;;;;;;;3.13;2.38;;;14.00;1.00;;;;;;4975653;28;20890;-85
2023/10/19 07:15:07;;;;;;;2.10;1.90;;;14.00;1.00;;;;;;4965748;28;20404;-85
2023/10/19 07:17:34;;;;;;;3.20;2.30;;;14.10;1.00;;;;;;4957221;28;20385;-86
2023/10/19 07:20:00;;;;;;;3.47;2.30;;;14.10;1.00;;;;;;4956776;28;20458;-85
2023/10/19 07:22:25;;;;;;;4.03;2.13;;;14.20;1.00;;;;;;4956011;28;20404;-85
2023/10/19 07:24:51;;;;;;;2.77;1.93;;;14.20;1.00;;;;;;4973667;28;20403;-85
2023/10/19 07:27:19;;;;;;;3.85;2.10;;;14.30;1.00;;;;;;4971706;28;20798;-85
2023/10/19 07:29:45;;;;;;;2.60;2.00;;;14.30;1.00;;;;;;4975431;28;20395;-85
2023/10/19 07:32:13;;;;;;;4.40;2.10;;;14.40;1.00;;;;;;4975670;28;20550;-85
2023/10/19 07:34:39;;;;;;;2.40;2.00;;;14.40;1.00;;;;;;4993167;28;20413;-85
2023/10/19 07:37:07;;;;;;;2.40;2.10;;;13.60;1.00;;;;;;4975267;28;20395;-85
2023/10/19 07:39:33;;;;;;;2.35;2.08;;;14.40;1.00;;;;;;4974740;28;20541;-85
2023/10/19 07:41:59;;;;;;;2.22;1.90;;;14.50;1.00;;;;;;4956282;28;20411;-85
2023/10/19 07:44:25;;;;;;;2.35;2.10;;;14.60;1.00;;;;;;4956711;28;20401;-85
2023/10/19 07:46:51;;;;;;;2.83;1.90;;;14.60;1.00;;;;;;4955828;28;20445;-85
2023/10/19 07:49:16;;;;;;;2.00;1.80;;;14.70;1.00;;;;;;4973419;28;20454;-86
2023/10/19 07:51:46;;;;;;;4.40;2.10;;;14.80;1.00;;;;;;4956156;28;20396;-86
2023/10/19 07:54:12;;;;;;;2.80;2.20;;;14.80;1.00;;;;;;4956774;28;20462;-86
2023/10/19 07:56:39;;;;;;;2.30;2.10;;;14.80;1.00;;;;;;4973680;28;20880;-86
2023/10/19 07:59:04;;;;;;;2.53;1.92;;;14.90;1.00;;;;;;4955968;28;20463;-86
2023/10/19 08:01:30;;;;;;;3.10;2.15;;;14.90;1.00;;;;;;4955831;28;20426;-86
2023/10/19 08:03:55;;;;;;;3.90;2.10;;;14.80;1.00;;;;;;4958432;28;20427;-86
2023/10/19 08:06:21;;;;;;;2.40;1.60;;;14.40;1.00;;;;;;4973177;28;20800;-86
2023/10/19 08:08:47;;;;;;;1.70;1.60;;;14.80;1.00;;;;;;4956855;28;20392;-86
2023/10/19 08:11:12;;;;;;;1.98;1.60;;;14.80;1.00;;;;;;4976033;28;20380;-86
2023/10/19 08:13:39;;;;;;;1.90;1.80;;;15.10;1.00;;;;;;4966370;28;20906;-86
2023/10/19 08:16:07;;;;;;;3.67;2.60;;;15.30;1.00;;;;;;4974781;28;20394;-86
2023/10/19 08:18:35;;;;;;;2.90;1.70;;;15.20;1.00;;;;;;4974890;28;20770;-86
2023/10/19 08:21:01;;;;;;;3.08;1.80;;;15.10;1.00;;;;;;4974906;28;20401;-86
2023/10/19 08:23:27;;;;;;;4.05;2.00;;;14.90;1.00;;;;;;4992092;28;20489;-86
2023/10/19 08:25:54;;;;;;;3.58;1.80;;;16.30;1.00;;;;;;4969670;28;20444;-86
2023/10/19 08:28:20;;;;;;;4.13;3.13;;;15.00;1.00;;;;;;4957733;28;20769;-85
2023/10/19 08:30:56;;;;;;;2.10;1.90;;;14.90;1.00;;;;;;4974174;28;20384;-85
2023/10/19 08:33:23;;;;;;;3.38;1.90;;;14.70;1.00;;;;;;4955312;28;20765;-86
2023/10/19 08:35:49;;;;;;;2.60;1.83;;;14.70;1.00;;;;;;4972528;28;20410;-86
2023/10/19 08:38:14;;;;;;;3.17;2.07;;;14.80;1.00;;;;;;4978036;28;20402;-86
2023/10/19 08:40:40;;;;;;;4.40;2.10;;;14.70;1.00;;;;;;4995605;28;20516;-86
2023/10/19 08:43:07;;;;;;;2.50;2.10;;;14.70;1.00;;;;;;5015980;28;20419;-85
2023/10/19 08:45:34;;;;;;;3.10;2.53;;;14.70;1.00;;;;;;4983688;28;20440;-85
2023/10/19 08:48:01;;;;;;;3.88;2.88;;;14.70;1.10;;;;;;4975414;28;20906;-86
2023/10/19 08:50:29;;;;;;;3.67;2.47;;;14.70;7.50;;;;;;4975646;28;20392;-85
2023/10/19 08:52:57;;;;;;;3.05;2.40;;;14.80;7.20;;;;;;4998146;28;20420;-86
2023/10/19 08:55:23;;;;;;;5.40;2.70;;;14.80;10.50;;;;;;5015650;28;20441;-86
2023/10/19 08:57:50;;;;;;;3.00;2.20;;;14.80;13.90;;;;;;4998715;28;20406;-86
2023/10/19 09:00:18;;;;;;;4.35;2.10;;;15.10;15.40;;;;;;4997112;28;20407;-86
2023/10/19 09:02:44;;;;;;;3.92;2.13;;;14.90;17.90;;;;;;4996282;28;20400;-86
2023/10/19 09:05:19;;;;;;;2.33;2.03;;;14.90;21.90;;;;;;4960234;28;20463;-86
2023/10/19 09:07:54;;;;;;;3.80;2.30;;;15.00;24.90;;;;;;4988080;28;20403;-86
2023/10/19 09:10:25;;;;;;;3.40;2.40;;;15.10;25.10;;;;;;4989891;28;20394;-86
2023/10/19 09:13:02;;;;;;;3.10;2.13;;;15.10;16.80;;;;;;4998935;28;20414;-86
2023/10/19 09:15:30;;;;;;;2.60;2.40;;;15.00;14.20;;;;;;4999081;28;20383;-86
2023/10/19 09:17:55;;;;;;;2.90;2.70;;;15.00;21.90;;;;;;4989590;28;20403;-85
2023/10/19 09:20:27;;;;;;;2.30;2.10;;;15.00;25.00;;;;;;4980229;28;20420;-85
2023/10/19 09:22:57;;;;;;;4.60;1.90;;;15.00;25.20;;;;;;4977811;28;20419;-85
2023/10/19 09:25:24;;;;;;;4.25;2.38;;;15.00;30.00;;;;;;4977329;28;20532;-85
2023/10/19 09:27:51;;;;;;;3.50;2.30;;;15.00;34.50;;;;;;5005681;28;20399;-85
2023/10/19 09:30:19;;;;;;;2.50;2.28;;;15.00;34.00;;;;;;4997646;28;20417;-85
2023/10/19 09:32:48;;;;;;;2.58;1.80;;;15.00;37.40;;;;;;4999908;28;20410;-85
2023/10/19 09:35:15;;;;;;;3.00;2.15;;;14.90;41.10;;;;;;5001722;28;20421;-85
2023/10/19 09:37:43;;;;;;;2.55;2.10;;;15.00;43.90;;;;;;5007968;28;20420;-86
2023/10/19 09:40:13;;;;;;;2.27;2.07;;;15.00;42.90;;;;;;4977677;28;20392;-86
2023/10/19 09:42:48;;;;;;;4.80;2.08;;;15.00;42.10;;;;;;4963066;28;20408;-85
2023/10/19 09:45:19;;;;;;;3.17;2.30;;;15.10;42.60;;;;;;4990088;28;20772;-86
2023/10/19 09:47:50;;;;;;;2.60;2.40;;;15.10;40.90;;;;;;4995683;28;20821;-86
2023/10/19 09:50:16;;;;;;;3.97;2.30;;;15.10;45.90;;;;;;4996108;28;20383;-86
2023/10/19 09:52:42;;;;;;;3.13;2.30;;;15.20;43.40;;;;;;4977792;28;20961;-86
2023/10/19 09:55:25;;;;;;;3.80;2.60;;;15.30;42.80;;;;;;4994672;28;20855;-86
2023/10/19 09:58:31;;;;;;;3.83;2.60;;;15.30;37.10;;;;;;4995471;28;20406;-86
2023/10/19 10:01:02;;;;;;;4.00;2.67;;;15.40;43.10;;;;;;4956062;28;20406;-87
2023/10/19 10:03:51;;;;;;;4.70;3.05;;;15.40;21.90;;;;;;4977495;28;20390;-87
2023/10/19 10:06:28;;;;;;;2.45;2.25;;;15.50;27.30;;;;;;4977159;28;20409;-87
2023/10/19 10:08:55;;;;;;;4.90;2.40;;;15.50;13.40;;;;;;4959166;28;20407;-87
2023/10/19 10:11:29;;;;;;;3.20;2.07;;;15.50;20.10;;;;;;4977586;28;20396;-86
2023/10/19 10:13:56;;;;;;;2.78;2.45;;;15.50;20.50;;;;;;4959971;28;20439;-86
2023/10/19 10:16:28;;;;;;;2.47;2.27;;;15.40;19.30;;;;;;4959147;28;20979;-86
2023/10/19 10:18:59;;;;;;;2.30;1.80;;;15.60;30.30;;;;;;4991270;28;20407;-87
2023/10/19 10:21:26;;;;;;;3.10;2.00;;;15.60;15.50;;;;;;4982531;28;20408;-86
2023/10/19 10:23:57;;;;;;;3.90;2.60;;;15.60;20.20;;;;;;4982557;28;20431;-86
2023/10/19 10:26:25;;;;;;;2.47;2.28;;;15.70;17.10;;;;;;4998785;28;20408;-86
2023/10/19 10:29:09;;;;;;;2.30;2.13;;;15.60;14.20;;;;;;4984644;28;20422;-86
2023/10/19 10:31:42;;;;;;;2.60;2.40;;;15.80;10.10;;;;;;4978678;28;20400;-86
2023/10/19 10:34:09;;;;;;;2.72;2.25;;;16.10;12.80;;;;;;4987856;28;20402;-86
2023/10/19 10:37:02;;;;;;;3.17;2.37;;;15.40;1.00;;;;;;4990357;28;20509;-86
2023/10/19 10:39:30;;;;;;;2.50;1.80;;;16.50;1.00;;;;;;4986664;28;20428;-85
2023/10/19 10:41:57;;;;;;;2.20;1.83;;;16.80;1.00;;;;;;4987986;28;20409;-86
2023/10/19 10:44:35;;;;;;;3.40;1.98;;;18.70;1.00;;;;;;4969532;28;20402;-87
2023/10/19 10:47:01;;;;;;;1.95;1.70;;;16.90;1.00;;;;;;4968005;28;20458;-86
2023/10/19 10:49:27;;;;;;;2.97;1.80;;;16.60;1.00;;;;;;4989870;28;20437;-87
2023/10/19 10:51:54;;;;;;;2.00;1.70;;;17.10;1.00;;;;;;4971678;28;20809;-86
2023/10/19 10:54:21;;;;;;;2.83;1.40;;;17.00;1.00;;;;;;4979881;28;20783;-86
2023/10/19 10:56:48;;;;;;;2.50;1.60;;;18.30;1.00;;;;;;4967356;28;21905;-85
2023/10/19 10:59:14;;;;;;;2.17;1.70;;;16.80;1.00;;;;;;4968434;28;20404;-85
2023/10/19 11:01:41;;;;;;;1.65;1.55;;;16.80;1.00;;;;;;4977820;28;20410;-86
2023/10/19 11:04:11;;;;;;;2.60;1.60;;;16.70;1.00;;;;;;4977560;28;20437;-85
2023/10/19 11:06:51;;;;;;;1.83;1.73;;;15.70;1.00;;;;;;4987519;28;20503;-85
2023/10/19 11:09:21;;;;;;;2.92;1.88;;;16.60;1.00;;;;;;4998285;28;20511;-85
2023/10/19 11:11:49;;;;;;;2.50;1.60;;;15.50;1.00;;;;;;4962410;28;20406;-87
2023/10/19 11:14:14;;;;;;;1.73;1.30;;;15.40;1.00;;;;;;4985567;28;20397;-86
2023/10/19 11:16:40;;;;;;;2.53;1.87;;;16.60;1.00;;;;;;4989359;28;20409;-86
2023/10/19 11:19:06;;;;;;;2.97;1.90;;;16.50;1.00;;;;;;4971651;28;21017;-85
2023/10/19 11:21:31;;;;;;;3.00;1.90;;;15.30;1.00;;;;;;4977062;28;20417;-86
2023/10/19 11:23:57;;;;;;;1.97;1.50;;;16.50;2.20;;;;;;4964291;28;20493;-87
2023/10/19 11:26:27;;;;;;;3.23;1.80;;;16.60;7.10;;;;;;4966904;28;20412;-86
2023/10/19 11:29:00;;;;;;;3.15;1.70;;;16.70;6.20;;;;;;4968508;28;20420;-86
2023/10/19 11:31:27;;;;;;;2.35;1.50;;;18.20;6.40;;;;;;4982877;28;20402;-86
2023/10/19 11:33:58;;;;;;;1.90;1.30;;;17.50;1.00;;;;;;4977827;28;20417;-86
2023/10/19 11:36:24;;;;;;;1.50;1.40;;;16.00;10.10;;;;;;4962902;28;20419;-86
2023/10/19 11:38:51;;;;;;;1.45;1.35;;;17.10;8.10;;;;;;4965527;28;20426;-86
2023/10/19 11:41:17;;;;;;;2.20;1.60;;;18.60;1.90;;;;;;4979671;28;20419;-86
2023/10/19 11:43:45;;;;;;;2.83;1.60;;;16.40;4.80;;;;;;4984831;28;20402;-86
2023/10/19 11:46:11;;;;;;;2.30;1.42;;;16.70;1.00;;;;;;4966590;28;20412;-86
2023/10/19 11:48:39;;;;;;;2.22;1.70;;;18.50;5.10;;;;;;4966634;28;20398;-86
2023/10/19 11:51:05;;;;;;;1.52;1.42;;;16.50;2.70;;;;;;4982707;28;20402;-86
2023/10/19 11:53:36;;;;;;;2.03;1.30;;;16.20;1.00;;;;;;4969895;28;20497;-87
2023/10/19 11:56:09;;;;;;;1.77;1.50;;;16.80;3.70;;;;;;4967845;28;20468;-86
2023/10/19 11:58:37;;;;;;;2.13;1.40;;;16.70;5.90;;;;;;4961289;28;20770;-87
2023/10/19 12:01:05;;;;;;;2.20;1.50;;;16.70;1.00;;;;;;4991340;28;20852;-87
2023/10/19 12:03:31;;;;;;;2.23;1.90;;;17.50;1.00;;;;;;4968075;28;20392;-86
2023/10/19 12:05:57;;;;;;;2.50;2.10;;;16.90;1.00;;;;;;4976901;28;20417;-86
2023/10/19 12:08:23;;;;;;;1.80;1.70;;;16.90;1.00;;;;;;5000591;28;20396;-87
2023/10/19 12:10:50;;;;;;;3.25;1.23;;;14.80;1.00;;;;;;5001490;28;20525;-87
2023/10/19 12:13:16;;;;;;;2.23;1.50;;;15.60;1.00;;;;;;4996939;28;20979;-87
2023/10/19 12:15:51;;;;;;;4.43;2.45;;;16.60;1.00;;;;;;4986912;28;20395;-88
2023/10/19 12:18:17;;;;;;;4.00;2.00;;;16.70;1.00;;;;;;4979401;28;20483;-87
2023/10/19 12:20:45;;;;;;;0.95;0.70;;;17.40;1.00;;;;;;4982450;28;20416;-87
2023/10/19 12:23:10;;;;;;;1.00;0.90;;;16.70;1.00;;;;;;4974599;28;20443;-86
2023/10/19 12:25:38;;;;;;;1.30;1.00;;;16.90;1.00;;;;;;4963491;28;20424;-87
2023/10/19 12:28:04;;;;;;;0.70;0.50;;;16.70;1.00;;;;;;4980725;28;20453;-87
2023/10/19 12:30:36;;;;;;;0.60;0.47;;;17.00;1.00;;;;;;4964031;28;20398;-87
2023/10/19 12:33:11;;;;;;;1.40;0.60;;;18.50;1.00;;;;;;4965399;28;20417;-87
2023/10/19 12:38:22;;;;;;;0.70;0.52;;;16.80;1.00;;;;;;4989338;28;20484;-87
2023/10/19 12:40:50;;;;;;;1.00;0.60;;;17.10;1.00;;;;;;4969603;28;20422;-87
2023/10/19 12:43:22;;;;;;;1.33;0.77;;;16.80;1.00;;;;;;4965075;28;20406;-87
2023/10/19 12:45:53;;;;;;;1.20;0.60;;;16.50;1.00;;;;;;4962793;28;20489;-87
2023/10/19 12:48:19;;;;;;;0.63;0.52;;;18.20;1.00;;;;;;4985446;28;20470;-86
2023/10/19 12:50:45;;;;;;;0.80;0.60;;;18.80;1.00;;;;;;4985310;28;20938;-87
2023/10/19 12:53:11;;;;;;;0.80;0.60;;;15.50;1.00;;;;;;4975007;28;20428;-87
2023/10/19 12:55:39;;;;;;;0.80;0.70;;;16.30;1.00;;;;;;4977478;28;21020;-88
2023/10/19 12:58:09;;;;;;;0.80;0.70;;;16.10;1.00;;;;;;4976794;28;20818;-86
2023/10/19 13:00:36;;;;;;;0.80;0.65;;;16.90;1.00;;;;;;4971896;28;20904;-86
2023/10/19 13:03:05;;;;;;;1.50;0.70;;;15.80;1.00;;;;;;4973792;28;20437;-88
2023/10/19 13:05:34;;;;;;;0.80;0.60;;;15.90;1.00;;;;;;4990348;28;20414;-88
2023/10/19 13:08:01;;;;;;;1.50;0.70;;;16.80;1.00;;;;;;4992189;28;20395;-88
2023/10/19 13:10:32;;;;;;;0.70;0.60;;;17.60;1.00;;;;;;5018416;28;20467;-89
2023/10/19 13:13:05;;;;;;;2.10;0.80;;;17.30;1.00;;;;;;4995318;28;20412;-87
2023/10/19 13:15:35;;;;;;;0.90;0.80;;;16.60;1.00;;;;;;4988380;28;20390;-88
2023/10/19 13:18:05;;;;;;;1.85;0.98;;;18.80;1.00;;;;;;5008179;28;20396;-87
2023/10/19 13:20:35;;;;;;;1.38;0.90;;;16.30;1.00;;;;;;5010883;28;20441;-88
2023/10/19 13:23:19;;;;;;;1.10;0.60;;;15.80;1.00;;;;;;4997885;28;20395;-89